sensor_id;sensor_type;location;lat;lon;timestamp;P1;durP1;ratioP1;P2;durP2;ratioP2
64227;SDS011;50546;49.146;10.616;2022-09-09T00:04:35;6.22;;;1.83;;
64227;SDS011;50546;49.146;10.616;2022-09-09T00:09:56;5.53;;;1.88;;
64227;SDS011;50546;49.146;10.616;2022-09-09T00:12:41;6.00;;;1.60;;
64227;SDS011;50546;49.146;10.616;2022-09-09T00:15:12;4.78;;;1.67;;
64227;SDS011;50546;49.146;10.616;2022-09-09T00:17:58;5.25;;;2.00;;
64227;SDS011;50546;49.146;10.616;2022-09-09T00:23:32;5.45;;;1.60;;
64227;SDS011;50546;49.146;10.616;2022-09-09T00:29:03;6.15;;;1.70;;
64227;SDS011;50546;49.146;10.616;2022-09-09T00:31:33;5.93;;;1.70;;
64227;SDS011;50546;49.146;10.616;2022-09-09T00:36:46;5.65;;;1.65;;
64227;SDS011;50546;49.146;10.616;2022-09-09T00:39:48;4.78;;;1.60;;
64227;SDS011;50546;49.146;10.616;2022-09-09T00:42:16;4.90;;;1.40;;
64227;SDS011;50546;49.146;10.616;2022-09-09T00:52:53;5.60;;;1.75;;
64227;SDS011;50546;49.146;10.616;2022-09-09T00:55:46;4.90;;;1.58;;
64227;SDS011;50546;49.146;10.616;2022-09-09T00:58:17;6.70;;;1.90;;
64227;SDS011;50546;49.146;10.616;2022-09-09T01:00:43;6.15;;;1.88;;
64227;SDS011;50546;49.146;10.616;2022-09-09T01:08:59;5.13;;;1.90;;
64227;SDS011;50546;49.146;10.616;2022-09-09T01:16:56;5.97;;;2.00;;
64227;SDS011;50546;49.146;10.616;2022-09-09T01:20:02;5.22;;;1.70;;
64227;SDS011;50546;49.146;10.616;2022-09-09T01:27:40;5.70;;;1.85;;
64227;SDS011;50546;49.146;10.616;2022-09-09T01:30:11;5.53;;;1.80;;
64227;SDS011;50546;49.146;10.616;2022-09-09T01:32:43;8.32;;;2.15;;
64227;SDS011;50546;49.146;10.616;2022-09-09T01:35:13;5.20;;;1.95;;
64227;SDS011;50546;49.146;10.616;2022-09-09T01:37:50;7.60;;;1.70;;
64227;SDS011;50546;49.146;10.616;2022-09-09T01:40:16;6.53;;;1.90;;
64227;SDS011;50546;49.146;10.616;2022-09-09T01:42:42;7.70;;;1.90;;
64227;SDS011;50546;49.146;10.616;2022-09-09T01:45:07;5.60;;;2.10;;
64227;SDS011;50546;49.146;10.616;2022-09-09T01:47:34;6.93;;;1.80;;
64227;SDS011;50546;49.146;10.616;2022-09-09T01:50:00;6.40;;;1.70;;
64227;SDS011;50546;49.146;10.616;2022-09-09T01:52:26;5.28;;;1.80;;
64227;SDS011;50546;49.146;10.616;2022-09-09T01:54:52;7.57;;;2.47;;
64227;SDS011;50546;49.146;10.616;2022-09-09T01:57:27;5.82;;;2.17;;
64227;SDS011;50546;49.146;10.616;2022-09-09T02:00:10;5.25;;;2.00;;
64227;SDS011;50546;49.146;10.616;2022-09-09T02:05:28;5.72;;;2.13;;
64227;SDS011;50546;49.146;10.616;2022-09-09T02:08:09;8.65;;;2.30;;
64227;SDS011;50546;49.146;10.616;2022-09-09T02:11:05;6.82;;;2.40;;
64227;SDS011;50546;49.146;10.616;2022-09-09T02:13:36;6.03;;;2.17;;
64227;SDS011;50546;49.146;10.616;2022-09-09T02:16:07;6.20;;;2.10;;
64227;SDS011;50546;49.146;10.616;2022-09-09T02:21:31;7.18;;;2.58;;
64227;SDS011;50546;49.146;10.616;2022-09-09T02:24:00;6.15;;;2.08;;
64227;SDS011;50546;49.146;10.616;2022-09-09T02:26:29;5.63;;;2.40;;
64227;SDS011;50546;49.146;10.616;2022-09-09T02:28:59;10.70;;;2.30;;
64227;SDS011;50546;49.146;10.616;2022-09-09T02:31:28;5.40;;;1.95;;
64227;SDS011;50546;49.146;10.616;2022-09-09T02:33:57;5.95;;;2.28;;
64227;SDS011;50546;49.146;10.616;2022-09-09T02:36:26;6.97;;;2.03;;
64227;SDS011;50546;49.146;10.616;2022-09-09T02:38:56;5.18;;;2.38;;
64227;SDS011;50546;49.146;10.616;2022-09-09T02:41:26;5.28;;;2.00;;
64227;SDS011;50546;49.146;10.616;2022-09-09T02:43:56;4.82;;;1.90;;
64227;SDS011;50546;49.146;10.616;2022-09-09T02:49:00;7.95;;;2.20;;
64227;SDS011;50546;49.146;10.616;2022-09-09T02:54:17;6.30;;;2.38;;
64227;SDS011;50546;49.146;10.616;2022-09-09T02:56:52;6.00;;;2.13;;
64227;SDS011;50546;49.146;10.616;2022-09-09T02:59:21;8.00;;;2.40;;
64227;SDS011;50546;49.146;10.616;2022-09-09T03:01:47;5.88;;;2.50;;
64227;SDS011;50546;49.146;10.616;2022-09-09T03:04:13;5.22;;;2.30;;
64227;SDS011;50546;49.146;10.616;2022-09-09T03:06:38;6.60;;;2.22;;
64227;SDS011;50546;49.146;10.616;2022-09-09T03:09:03;6.43;;;2.42;;
64227;SDS011;50546;49.146;10.616;2022-09-09T03:11:29;6.20;;;2.25;;
64227;SDS011;50546;49.146;10.616;2022-09-09T03:13:55;5.13;;;2.20;;
64227;SDS011;50546;49.146;10.616;2022-09-09T03:16:21;6.00;;;2.20;;
64227;SDS011;50546;49.146;10.616;2022-09-09T03:18:47;6.03;;;2.75;;
64227;SDS011;50546;49.146;10.616;2022-09-09T03:21:12;5.72;;;2.33;;
64227;SDS011;50546;49.146;10.616;2022-09-09T03:23:38;5.80;;;2.30;;
64227;SDS011;50546;49.146;10.616;2022-09-09T03:26:03;6.25;;;2.35;;
64227;SDS011;50546;49.146;10.616;2022-09-09T03:28:29;7.45;;;2.78;;
64227;SDS011;50546;49.146;10.616;2022-09-09T03:30:58;5.53;;;2.35;;
64227;SDS011;50546;49.146;10.616;2022-09-09T03:35:52;5.45;;;2.30;;
64227;SDS011;50546;49.146;10.616;2022-09-09T03:38:18;5.72;;;2.50;;
64227;SDS011;50546;49.146;10.616;2022-09-09T03:40:53;6.65;;;2.55;;
64227;SDS011;50546;49.146;10.616;2022-09-09T03:43:21;7.93;;;2.22;;
64227;SDS011;50546;49.146;10.616;2022-09-09T03:45:46;6.53;;;3.10;;
64227;SDS011;50546;49.146;10.616;2022-09-09T03:48:12;7.47;;;2.67;;
64227;SDS011;50546;49.146;10.616;2022-09-09T03:50:38;6.20;;;2.72;;
64227;SDS011;50546;49.146;10.616;2022-09-09T03:53:03;7.65;;;2.90;;
64227;SDS011;50546;49.146;10.616;2022-09-09T03:55:30;6.63;;;2.90;;
64227;SDS011;50546;49.146;10.616;2022-09-09T03:57:56;6.50;;;2.75;;
64227;SDS011;50546;49.146;10.616;2022-09-09T04:00:21;9.27;;;2.55;;
64227;SDS011;50546;49.146;10.616;2022-09-09T04:02:46;7.55;;;2.92;;
64227;SDS011;50546;49.146;10.616;2022-09-09T04:05:12;5.97;;;2.63;;
64227;SDS011;50546;49.146;10.616;2022-09-09T04:07:38;5.68;;;2.40;;
64227;SDS011;50546;49.146;10.616;2022-09-09T04:10:03;8.43;;;2.40;;
64227;SDS011;50546;49.146;10.616;2022-09-09T04:12:29;8.43;;;2.63;;
64227;SDS011;50546;49.146;10.616;2022-09-09T04:14:54;9.48;;;2.55;;
64227;SDS011;50546;49.146;10.616;2022-09-09T04:17:19;7.57;;;2.65;;
64227;SDS011;50546;49.146;10.616;2022-09-09T04:19:45;6.03;;;2.13;;
64227;SDS011;50546;49.146;10.616;2022-09-09T04:22:10;8.02;;;2.38;;
64227;SDS011;50546;49.146;10.616;2022-09-09T04:24:35;7.78;;;2.70;;
64227;SDS011;50546;49.146;10.616;2022-09-09T04:27:01;6.30;;;2.88;;
64227;SDS011;50546;49.146;10.616;2022-09-09T04:29:26;6.50;;;2.35;;
64227;SDS011;50546;49.146;10.616;2022-09-09T04:31:51;7.50;;;2.70;;
64227;SDS011;50546;49.146;10.616;2022-09-09T04:34:17;7.90;;;2.72;;
64227;SDS011;50546;49.146;10.616;2022-09-09T04:36:42;5.57;;;2.60;;
64227;SDS011;50546;49.146;10.616;2022-09-09T04:39:07;7.20;;;2.50;;
64227;SDS011;50546;49.146;10.616;2022-09-09T04:41:32;8.32;;;2.45;;
64227;SDS011;50546;49.146;10.616;2022-09-09T04:43:58;5.78;;;2.15;;
64227;SDS011;50546;49.146;10.616;2022-09-09T04:46:24;6.20;;;2.40;;
64227;SDS011;50546;49.146;10.616;2022-09-09T04:48:50;5.85;;;2.45;;
64227;SDS011;50546;49.146;10.616;2022-09-09T04:51:17;6.50;;;2.40;;
64227;SDS011;50546;49.146;10.616;2022-09-09T04:53:42;8.45;;;2.35;;
64227;SDS011;50546;49.146;10.616;2022-09-09T04:56:11;6.25;;;2.40;;
64227;SDS011;50546;49.146;10.616;2022-09-09T04:58:38;6.55;;;2.58;;
64227;SDS011;50546;49.146;10.616;2022-09-09T05:03:34;7.28;;;2.63;;
64227;SDS011;50546;49.146;10.616;2022-09-09T05:06:10;6.32;;;2.60;;
64227;SDS011;50546;49.146;10.616;2022-09-09T05:08:37;9.15;;;2.30;;
64227;SDS011;50546;49.146;10.616;2022-09-09T05:11:13;7.60;;;2.50;;
64227;SDS011;50546;49.146;10.616;2022-09-09T05:13:49;5.20;;;2.20;;
64227;SDS011;50546;49.146;10.616;2022-09-09T05:16:15;7.35;;;2.40;;
64227;SDS011;50546;49.146;10.616;2022-09-09T05:18:42;7.45;;;2.92;;
64227;SDS011;50546;49.146;10.616;2022-09-09T05:21:08;7.68;;;2.55;;
64227;SDS011;50546;49.146;10.616;2022-09-09T05:23:37;7.10;;;2.20;;
64227;SDS011;50546;49.146;10.616;2022-09-09T05:26:03;6.15;;;2.20;;
64227;SDS011;50546;49.146;10.616;2022-09-09T05:28:29;7.82;;;2.10;;
64227;SDS011;50546;49.146;10.616;2022-09-09T05:30:58;6.43;;;2.15;;
64227;SDS011;50546;49.146;10.616;2022-09-09T05:33:26;7.53;;;2.30;;
64227;SDS011;50546;49.146;10.616;2022-09-09T05:35:58;6.75;;;2.50;;
64227;SDS011;50546;49.146;10.616;2022-09-09T05:38:26;8.55;;;2.40;;
64227;SDS011;50546;49.146;10.616;2022-09-09T05:40:52;7.35;;;2.63;;
64227;SDS011;50546;49.146;10.616;2022-09-09T05:43:18;6.07;;;2.10;;
64227;SDS011;50546;49.146;10.616;2022-09-09T05:45:45;7.47;;;2.45;;
64227;SDS011;50546;49.146;10.616;2022-09-09T05:48:23;6.55;;;2.42;;
64227;SDS011;50546;49.146;10.616;2022-09-09T05:50:52;8.10;;;2.58;;
64227;SDS011;50546;49.146;10.616;2022-09-09T05:53:19;6.78;;;2.45;;
64227;SDS011;50546;49.146;10.616;2022-09-09T05:55:45;5.78;;;2.28;;
64227;SDS011;50546;49.146;10.616;2022-09-09T05:58:10;5.07;;;2.17;;
64227;SDS011;50546;49.146;10.616;2022-09-09T06:00:36;6.55;;;2.15;;
64227;SDS011;50546;49.146;10.616;2022-09-09T06:03:01;5.30;;;2.10;;
64227;SDS011;50546;49.146;10.616;2022-09-09T06:05:27;8.20;;;2.50;;
64227;SDS011;50546;49.146;10.616;2022-09-09T06:07:52;6.63;;;2.15;;
64227;SDS011;50546;49.146;10.616;2022-09-09T06:10:18;6.85;;;2.33;;
64227;SDS011;50546;49.146;10.616;2022-09-09T06:12:44;6.55;;;2.30;;
64227;SDS011;50546;49.146;10.616;2022-09-09T06:15:09;6.00;;;2.33;;
64227;SDS011;50546;49.146;10.616;2022-09-09T06:17:34;6.47;;;2.40;;
64227;SDS011;50546;49.146;10.616;2022-09-09T06:20:00;9.32;;;3.13;;
64227;SDS011;50546;49.146;10.616;2022-09-09T06:22:25;7.78;;;2.30;;
64227;SDS011;50546;49.146;10.616;2022-09-09T06:24:50;7.07;;;2.05;;
64227;SDS011;50546;49.146;10.616;2022-09-09T06:27:16;7.25;;;2.13;;
64227;SDS011;50546;49.146;10.616;2022-09-09T06:29:41;5.47;;;2.03;;
64227;SDS011;50546;49.146;10.616;2022-09-09T06:32:06;6.07;;;2.00;;
64227;SDS011;50546;49.146;10.616;2022-09-09T06:34:34;5.75;;;1.65;;
64227;SDS011;50546;49.146;10.616;2022-09-09T06:37:00;8.43;;;1.80;;
64227;SDS011;50546;49.146;10.616;2022-09-09T06:39:25;6.85;;;1.85;;
64227;SDS011;50546;49.146;10.616;2022-09-09T06:41:51;5.88;;;1.73;;
64227;SDS011;50546;49.146;10.616;2022-09-09T06:44:18;5.90;;;1.67;;
64227;SDS011;50546;49.146;10.616;2022-09-09T06:46:44;5.95;;;1.67;;
64227;SDS011;50546;49.146;10.616;2022-09-09T06:49:12;6.07;;;1.55;;
64227;SDS011;50546;49.146;10.616;2022-09-09T06:51:38;5.53;;;1.60;;
64227;SDS011;50546;49.146;10.616;2022-09-09T06:54:07;6.82;;;1.77;;
64227;SDS011;50546;49.146;10.616;2022-09-09T06:56:34;5.53;;;1.60;;
64227;SDS011;50546;49.146;10.616;2022-09-09T06:59:02;5.90;;;1.42;;
64227;SDS011;50546;49.146;10.616;2022-09-09T07:01:30;5.70;;;1.48;;
64227;SDS011;50546;49.146;10.616;2022-09-09T07:03:58;6.20;;;1.70;;
64227;SDS011;50546;49.146;10.616;2022-09-09T07:06:28;5.72;;;1.65;;
64227;SDS011;50546;49.146;10.616;2022-09-09T07:08:56;5.88;;;1.30;;
64227;SDS011;50546;49.146;10.616;2022-09-09T07:11:24;5.10;;;1.40;;
64227;SDS011;50546;49.146;10.616;2022-09-09T07:13:51;4.85;;;1.30;;
64227;SDS011;50546;49.146;10.616;2022-09-09T07:16:18;4.82;;;1.40;;
64227;SDS011;50546;49.146;10.616;2022-09-09T07:18:45;5.13;;;1.40;;
64227;SDS011;50546;49.146;10.616;2022-09-09T07:21:11;5.18;;;1.40;;
64227;SDS011;50546;49.146;10.616;2022-09-09T07:23:38;5.10;;;1.30;;
64227;SDS011;50546;49.146;10.616;2022-09-09T07:26:07;6.80;;;1.30;;
64227;SDS011;50546;49.146;10.616;2022-09-09T07:28:38;4.60;;;1.20;;
64227;SDS011;50546;49.146;10.616;2022-09-09T07:31:04;4.50;;;1.10;;
64227;SDS011;50546;49.146;10.616;2022-09-09T07:33:31;5.30;;;1.38;;
64227;SDS011;50546;49.146;10.616;2022-09-09T07:36:02;4.18;;;1.30;;
64227;SDS011;50546;49.146;10.616;2022-09-09T07:38:33;6.20;;;1.15;;
64227;SDS011;50546;49.146;10.616;2022-09-09T07:41:03;5.63;;;1.23;;
64227;SDS011;50546;49.146;10.616;2022-09-09T07:43:30;5.90;;;1.10;;
64227;SDS011;50546;49.146;10.616;2022-09-09T07:45:59;4.25;;;1.00;;
64227;SDS011;50546;49.146;10.616;2022-09-09T07:48:28;6.47;;;1.10;;
64227;SDS011;50546;49.146;10.616;2022-09-09T07:51:02;5.53;;;1.30;;
64227;SDS011;50546;49.146;10.616;2022-09-09T07:53:30;4.00;;;1.10;;
64227;SDS011;50546;49.146;10.616;2022-09-09T07:56:01;6.30;;;1.00;;
64227;SDS011;50546;49.146;10.616;2022-09-09T07:58:30;3.75;;;1.02;;
64227;SDS011;50546;49.146;10.616;2022-09-09T08:00:56;4.45;;;1.17;;
64227;SDS011;50546;49.146;10.616;2022-09-09T08:03:22;7.53;;;1.13;;
64227;SDS011;50546;49.146;10.616;2022-09-09T08:05:48;4.72;;;1.20;;
64227;SDS011;50546;49.146;10.616;2022-09-09T08:08:13;4.07;;;0.95;;
64227;SDS011;50546;49.146;10.616;2022-09-09T08:10:39;3.85;;;1.00;;
64227;SDS011;50546;49.146;10.616;2022-09-09T08:13:04;6.38;;;1.00;;
64227;SDS011;50546;49.146;10.616;2022-09-09T08:15:30;4.80;;;1.00;;
64227;SDS011;50546;49.146;10.616;2022-09-09T08:17:57;4.85;;;1.00;;
64227;SDS011;50546;49.146;10.616;2022-09-09T08:20:22;5.15;;;1.20;;
64227;SDS011;50546;49.146;10.616;2022-09-09T08:22:48;4.20;;;0.93;;
64227;SDS011;50546;49.146;10.616;2022-09-09T08:25:14;5.97;;;1.10;;
64227;SDS011;50546;49.146;10.616;2022-09-09T08:27:40;3.80;;;0.90;;
64227;SDS011;50546;49.146;10.616;2022-09-09T08:30:06;5.03;;;1.08;;
64227;SDS011;50546;49.146;10.616;2022-09-09T08:32:32;6.40;;;1.13;;
64227;SDS011;50546;49.146;10.616;2022-09-09T08:34:57;3.95;;;1.00;;
64227;SDS011;50546;49.146;10.616;2022-09-09T08:37:22;3.97;;;0.98;;
64227;SDS011;50546;49.146;10.616;2022-09-09T08:39:47;3.85;;;1.00;;
64227;SDS011;50546;49.146;10.616;2022-09-09T08:45:09;3.85;;;1.00;;
64227;SDS011;50546;49.146;10.616;2022-09-09T08:50:49;5.30;;;1.13;;
64227;SDS011;50546;49.146;10.616;2022-09-09T08:53:23;4.75;;;1.20;;
64227;SDS011;50546;49.146;10.616;2022-09-09T08:55:59;4.82;;;1.23;;
64227;SDS011;50546;49.146;10.616;2022-09-09T09:03:52;3.67;;;0.85;;
64227;SDS011;50546;49.146;10.616;2022-09-09T09:11:53;6.43;;;1.30;;
64227;SDS011;50546;49.146;10.616;2022-09-09T09:14:26;4.40;;;1.00;;
64227;SDS011;50546;49.146;10.616;2022-09-09T09:19:23;5.05;;;1.00;;
64227;SDS011;50546;49.146;10.616;2022-09-09T09:24:39;5.53;;;1.13;;
64227;SDS011;50546;49.146;10.616;2022-09-09T09:27:11;4.60;;;1.00;;
64227;SDS011;50546;49.146;10.616;2022-09-09T09:29:38;6.05;;;1.00;;
64227;SDS011;50546;49.146;10.616;2022-09-09T09:32:07;6.40;;;1.10;;
64227;SDS011;50546;49.146;10.616;2022-09-09T09:34:39;5.05;;;1.05;;
64227;SDS011;50546;49.146;10.616;2022-09-09T09:37:16;4.45;;;1.10;;
64227;SDS011;50546;49.146;10.616;2022-09-09T09:39:48;5.05;;;1.17;;
64227;SDS011;50546;49.146;10.616;2022-09-09T09:42:16;4.35;;;1.30;;
64227;SDS011;50546;49.146;10.616;2022-09-09T09:44:42;4.47;;;1.08;;
64227;SDS011;50546;49.146;10.616;2022-09-09T09:47:18;4.05;;;1.08;;
64227;SDS011;50546;49.146;10.616;2022-09-09T09:52:20;3.65;;;1.08;;
64227;SDS011;50546;49.146;10.616;2022-09-09T09:54:49;5.70;;;1.70;;
64227;SDS011;50546;49.146;10.616;2022-09-09T09:57:16;4.97;;;1.23;;
64227;SDS011;50546;49.146;10.616;2022-09-09T09:59:43;4.53;;;1.00;;
64227;SDS011;50546;49.146;10.616;2022-09-09T10:02:16;5.80;;;1.30;;
64227;SDS011;50546;49.146;10.616;2022-09-09T10:04:43;6.57;;;1.20;;
64227;SDS011;50546;49.146;10.616;2022-09-09T10:07:17;4.70;;;1.10;;
64227;SDS011;50546;49.146;10.616;2022-09-09T10:09:44;5.55;;;1.27;;
64227;SDS011;50546;49.146;10.616;2022-09-09T10:12:33;4.82;;;1.30;;
64227;SDS011;50546;49.146;10.616;2022-09-09T10:23:54;5.18;;;1.30;;
64227;SDS011;50546;49.146;10.616;2022-09-09T10:32:28;5.90;;;1.20;;
64227;SDS011;50546;49.146;10.616;2022-09-09T10:35:04;4.38;;;1.10;;
64227;SDS011;50546;49.146;10.616;2022-09-09T10:40:25;7.93;;;1.70;;
64227;SDS011;50546;49.146;10.616;2022-09-09T10:45:32;3.78;;;1.02;;
64227;SDS011;50546;49.146;10.616;2022-09-09T10:50:42;5.65;;;1.20;;
64227;SDS011;50546;49.146;10.616;2022-09-09T10:56:12;5.55;;;1.42;;
64227;SDS011;50546;49.146;10.616;2022-09-09T10:58:46;6.72;;;1.13;;
64227;SDS011;50546;49.146;10.616;2022-09-09T11:01:21;4.75;;;1.05;;
64227;SDS011;50546;49.146;10.616;2022-09-09T11:03:54;3.78;;;1.00;;
64227;SDS011;50546;49.146;10.616;2022-09-09T11:06:28;5.07;;;1.10;;
64227;SDS011;50546;49.146;10.616;2022-09-09T11:09:01;4.60;;;1.20;;
64227;SDS011;50546;49.146;10.616;2022-09-09T11:16:49;5.20;;;1.10;;
64227;SDS011;50546;49.146;10.616;2022-09-09T11:22:05;5.90;;;1.20;;
64227;SDS011;50546;49.146;10.616;2022-09-09T11:24:40;5.57;;;1.42;;
64227;SDS011;50546;49.146;10.616;2022-09-09T11:27:16;5.63;;;1.10;;
64227;SDS011;50546;49.146;10.616;2022-09-09T11:29:59;4.82;;;0.95;;
64227;SDS011;50546;49.146;10.616;2022-09-09T11:38:08;6.20;;;1.08;;
64227;SDS011;50546;49.146;10.616;2022-09-09T11:40:41;6.47;;;1.30;;
64227;SDS011;50546;49.146;10.616;2022-09-09T11:43:10;6.78;;;1.15;;
64227;SDS011;50546;49.146;10.616;2022-09-09T11:45:39;3.92;;;1.00;;
64227;SDS011;50546;49.146;10.616;2022-09-09T11:51:12;4.38;;;1.10;;
64227;SDS011;50546;49.146;10.616;2022-09-09T11:53:51;4.85;;;1.10;;
64227;SDS011;50546;49.146;10.616;2022-09-09T11:56:29;5.78;;;1.10;;
64227;SDS011;50546;49.146;10.616;2022-09-09T11:59:06;4.65;;;0.90;;
64227;SDS011;50546;49.146;10.616;2022-09-09T12:01:45;4.63;;;1.23;;
64227;SDS011;50546;49.146;10.616;2022-09-09T12:06:53;6.25;;;1.10;;
64227;SDS011;50546;49.146;10.616;2022-09-09T12:09:27;5.15;;;1.05;;
64227;SDS011;50546;49.146;10.616;2022-09-09T12:19:47;4.07;;;0.90;;
64227;SDS011;50546;49.146;10.616;2022-09-09T12:24:43;8.40;;;1.27;;
64227;SDS011;50546;49.146;10.616;2022-09-09T12:27:28;5.15;;;1.15;;
64227;SDS011;50546;49.146;10.616;2022-09-09T12:30:11;4.60;;;1.20;;
64227;SDS011;50546;49.146;10.616;2022-09-09T12:32:39;5.72;;;1.02;;
64227;SDS011;50546;49.146;10.616;2022-09-09T12:35:12;3.70;;;0.90;;
64227;SDS011;50546;49.146;10.616;2022-09-09T12:37:53;4.50;;;1.00;;
64227;SDS011;50546;49.146;10.616;2022-09-09T12:40:28;3.83;;;1.00;;
64227;SDS011;50546;49.146;10.616;2022-09-09T12:43:00;4.60;;;1.27;;
64227;SDS011;50546;49.146;10.616;2022-09-09T12:45:27;3.45;;;0.88;;
64227;SDS011;50546;49.146;10.616;2022-09-09T12:48:08;5.88;;;1.10;;
64227;SDS011;50546;49.146;10.616;2022-09-09T12:50:48;5.00;;;1.05;;
64227;SDS011;50546;49.146;10.616;2022-09-09T12:55:59;4.60;;;1.08;;
64227;SDS011;50546;49.146;10.616;2022-09-09T12:58:28;5.80;;;1.10;;
64227;SDS011;50546;49.146;10.616;2022-09-09T13:00:58;4.43;;;1.00;;
64227;SDS011;50546;49.146;10.616;2022-09-09T13:03:25;5.38;;;1.00;;
64227;SDS011;50546;49.146;10.616;2022-09-09T13:05:51;5.35;;;1.05;;
64227;SDS011;50546;49.146;10.616;2022-09-09T13:08:18;5.40;;;0.98;;
64227;SDS011;50546;49.146;10.616;2022-09-09T13:13:29;7.07;;;1.23;;
64227;SDS011;50546;49.146;10.616;2022-09-09T13:16:04;5.20;;;1.00;;
64227;SDS011;50546;49.146;10.616;2022-09-09T13:18:37;5.15;;;1.10;;
64227;SDS011;50546;49.146;10.616;2022-09-09T13:21:05;5.75;;;1.27;;
64227;SDS011;50546;49.146;10.616;2022-09-09T13:23:35;6.45;;;1.20;;
64227;SDS011;50546;49.146;10.616;2022-09-09T13:26:03;4.93;;;1.00;;
64227;SDS011;50546;49.146;10.616;2022-09-09T13:28:32;4.10;;;0.90;;
64227;SDS011;50546;49.146;10.616;2022-09-09T13:31:03;5.25;;;1.10;;
64227;SDS011;50546;49.146;10.616;2022-09-09T13:33:35;5.82;;;1.20;;
64227;SDS011;50546;49.146;10.616;2022-09-09T13:36:03;4.38;;;1.23;;
64227;SDS011;50546;49.146;10.616;2022-09-09T13:38:32;6.30;;;1.27;;
64227;SDS011;50546;49.146;10.616;2022-09-09T13:41:02;4.67;;;1.17;;
64227;SDS011;50546;49.146;10.616;2022-09-09T13:43:37;4.72;;;1.10;;
64227;SDS011;50546;49.146;10.616;2022-09-09T13:48:58;3.97;;;0.90;;
64227;SDS011;50546;49.146;10.616;2022-09-09T13:54:11;3.97;;;0.90;;
64227;SDS011;50546;49.146;10.616;2022-09-09T13:56:38;4.68;;;0.80;;
64227;SDS011;50546;49.146;10.616;2022-09-09T13:59:05;1.77;;;0.63;;
64227;SDS011;50546;49.146;10.616;2022-09-09T14:01:35;4.07;;;0.90;;
64227;SDS011;50546;49.146;10.616;2022-09-09T14:04:01;3.60;;;0.82;;
64227;SDS011;50546;49.146;10.616;2022-09-09T14:06:27;3.45;;;0.70;;
64227;SDS011;50546;49.146;10.616;2022-09-09T14:08:54;2.85;;;0.70;;
64227;SDS011;50546;49.146;10.616;2022-09-09T14:11:19;1.73;;;0.68;;
64227;SDS011;50546;49.146;10.616;2022-09-09T14:13:46;4.28;;;0.75;;
64227;SDS011;50546;49.146;10.616;2022-09-09T14:16:12;3.95;;;0.80;;
64227;SDS011;50546;49.146;10.616;2022-09-09T14:18:37;1.90;;;0.68;;
64227;SDS011;50546;49.146;10.616;2022-09-09T14:21:03;3.08;;;0.75;;
64227;SDS011;50546;49.146;10.616;2022-09-09T14:23:29;3.80;;;0.90;;
64227;SDS011;50546;49.146;10.616;2022-09-09T14:25:54;3.90;;;0.88;;
64227;SDS011;50546;49.146;10.616;2022-09-09T14:28:20;4.70;;;1.10;;
64227;SDS011;50546;49.146;10.616;2022-09-09T14:30:46;3.38;;;0.80;;
64227;SDS011;50546;49.146;10.616;2022-09-09T14:33:13;3.95;;;0.70;;
64227;SDS011;50546;49.146;10.616;2022-09-09T14:35:39;3.60;;;0.88;;
64227;SDS011;50546;49.146;10.616;2022-09-09T14:38:06;3.60;;;0.80;;
64227;SDS011;50546;49.146;10.616;2022-09-09T14:40:31;3.17;;;0.73;;
64227;SDS011;50546;49.146;10.616;2022-09-09T14:42:56;2.50;;;0.70;;
64227;SDS011;50546;49.146;10.616;2022-09-09T14:45:23;4.72;;;1.08;;
64227;SDS011;50546;49.146;10.616;2022-09-09T14:47:50;5.40;;;1.00;;
64227;SDS011;50546;49.146;10.616;2022-09-09T14:50:16;3.47;;;0.70;;
64227;SDS011;50546;49.146;10.616;2022-09-09T14:52:41;2.05;;;0.75;;
64227;SDS011;50546;49.146;10.616;2022-09-09T14:55:07;4.70;;;0.90;;
64227;SDS011;50546;49.146;10.616;2022-09-09T14:57:32;2.65;;;0.70;;
64227;SDS011;50546;49.146;10.616;2022-09-09T14:59:59;4.40;;;0.90;;
64227;SDS011;50546;49.146;10.616;2022-09-09T15:02:25;4.25;;;0.80;;
64227;SDS011;50546;49.146;10.616;2022-09-09T15:04:50;5.35;;;0.77;;
64227;SDS011;50546;49.146;10.616;2022-09-09T15:07:15;2.78;;;0.70;;
64227;SDS011;50546;49.146;10.616;2022-09-09T15:09:41;3.45;;;0.70;;
64227;SDS011;50546;49.146;10.616;2022-09-09T15:12:07;2.67;;;0.70;;
64227;SDS011;50546;49.146;10.616;2022-09-09T15:14:33;2.67;;;0.70;;
64227;SDS011;50546;49.146;10.616;2022-09-09T15:16:59;3.13;;;0.70;;
64227;SDS011;50546;49.146;10.616;2022-09-09T15:19:24;4.80;;;1.00;;
64227;SDS011;50546;49.146;10.616;2022-09-09T15:21:49;3.80;;;0.80;;
64227;SDS011;50546;49.146;10.616;2022-09-09T15:24:14;1.85;;;0.60;;
64227;SDS011;50546;49.146;10.616;2022-09-09T15:26:41;3.53;;;0.73;;
64227;SDS011;50546;49.146;10.616;2022-09-09T15:29:06;1.55;;;0.60;;
64227;SDS011;50546;49.146;10.616;2022-09-09T15:31:33;2.13;;;0.70;;
64227;SDS011;50546;49.146;10.616;2022-09-09T15:33:59;2.70;;;0.70;;
64227;SDS011;50546;49.146;10.616;2022-09-09T15:36:33;3.30;;;0.80;;
64227;SDS011;50546;49.146;10.616;2022-09-09T15:39:00;2.17;;;0.70;;
64227;SDS011;50546;49.146;10.616;2022-09-09T15:41:27;5.93;;;0.90;;
64227;SDS011;50546;49.146;10.616;2022-09-09T15:43:54;2.28;;;0.70;;
64227;SDS011;50546;49.146;10.616;2022-09-09T15:49:37;2.65;;;0.80;;
64227;SDS011;50546;49.146;10.616;2022-09-09T15:51:45;2.67;;;0.80;;
64227;SDS011;50546;49.146;10.616;2022-09-09T15:54:15;6.30;;;0.95;;
64227;SDS011;50546;49.146;10.616;2022-09-09T15:56:43;3.78;;;0.90;;
64227;SDS011;50546;49.146;10.616;2022-09-09T15:59:09;4.18;;;1.08;;
64227;SDS011;50546;49.146;10.616;2022-09-09T16:01:34;3.72;;;0.85;;
64227;SDS011;50546;49.146;10.616;2022-09-09T16:04:00;3.28;;;0.80;;
64227;SDS011;50546;49.146;10.616;2022-09-09T16:06:27;3.25;;;0.80;;
64227;SDS011;50546;49.146;10.616;2022-09-09T16:08:54;3.95;;;0.80;;
64227;SDS011;50546;49.146;10.616;2022-09-09T16:11:25;3.30;;;0.77;;
64227;SDS011;50546;49.146;10.616;2022-09-09T16:13:52;3.40;;;0.80;;
64227;SDS011;50546;49.146;10.616;2022-09-09T16:16:19;3.13;;;0.82;;
64227;SDS011;50546;49.146;10.616;2022-09-09T16:18:48;3.35;;;0.80;;
64227;SDS011;50546;49.146;10.616;2022-09-09T16:21:17;4.10;;;0.90;;
64227;SDS011;50546;49.146;10.616;2022-09-09T16:23:45;3.80;;;0.82;;
64227;SDS011;50546;49.146;10.616;2022-09-09T16:26:11;4.60;;;0.88;;
64227;SDS011;50546;49.146;10.616;2022-09-09T16:28:38;5.03;;;1.00;;
64227;SDS011;50546;49.146;10.616;2022-09-09T16:31:05;1.73;;;0.70;;
64227;SDS011;50546;49.146;10.616;2022-09-09T16:33:31;2.63;;;0.80;;
64227;SDS011;50546;49.146;10.616;2022-09-09T16:35:57;3.35;;;0.82;;
64227;SDS011;50546;49.146;10.616;2022-09-09T16:38:22;4.20;;;0.90;;
64227;SDS011;50546;49.146;10.616;2022-09-09T16:40:47;3.90;;;0.98;;
64227;SDS011;50546;49.146;10.616;2022-09-09T16:43:15;4.30;;;0.85;;
64227;SDS011;50546;49.146;10.616;2022-09-09T16:45:44;4.25;;;0.93;;
64227;SDS011;50546;49.146;10.616;2022-09-09T16:48:09;2.22;;;0.80;;
64227;SDS011;50546;49.146;10.616;2022-09-09T16:50:35;5.53;;;0.88;;
64227;SDS011;50546;49.146;10.616;2022-09-09T16:53:00;3.22;;;0.88;;
64227;SDS011;50546;49.146;10.616;2022-09-09T16:55:30;2.80;;;0.80;;
64227;SDS011;50546;49.146;10.616;2022-09-09T16:57:56;3.22;;;0.90;;
64227;SDS011;50546;49.146;10.616;2022-09-09T17:00:21;3.80;;;1.10;;
64227;SDS011;50546;49.146;10.616;2022-09-09T17:02:48;4.78;;;1.23;;
64227;SDS011;50546;49.146;10.616;2022-09-09T17:05:13;4.15;;;0.90;;
64227;SDS011;50546;49.146;10.616;2022-09-09T17:07:39;4.38;;;0.90;;
64227;SDS011;50546;49.146;10.616;2022-09-09T17:10:05;4.00;;;0.90;;
64227;SDS011;50546;49.146;10.616;2022-09-09T17:12:31;4.10;;;0.95;;